Lahore, Pakistan
Current Conditions -  °F | °C
As of 2:55 PM on Friday 31 Oct 2014 (Local Time) from OPLA Reporting Station
Haze Haze  
Wind Chill: 86°   Ceiling: Unl
Heat Index: 86°   Visibility: 2.5mi
Dew Point: 48°   Wind: 9mph
Humidity: 27%   Direction: 270°W
Pressure: NA   Gusts: NA
Location:  31.56°N, 74.35°E
Report Text: OPLA 310955Z 27008KT 4000 HZ NSC 30/09 Q1014/A29.95 NOSIG
Loading
Personal Weather Stations






























Interactive Weather Map
Tropical Storm Tracking
New forecast layout! Learn more

10-Day Weather Forecast

Advertisements
Track Severe Weather on mobile